Time;durP1;ratioP1;P1;durP2;ratioP2;P2;SDS_P1;SDS_P2;PMS_P1;PMS_P2;Temp;Humidity;BMP_temperature;BMP_pressure;BME280_temperature;BME280_humidity;BME280_pressure;Samples;Min_cycle;Max_cycle;Signal;HPM_P1;HPM_P2
2023/12/29 00:00:06;;;;;;;8.87;3.60;;;9.80;99.90;;;;;;5017430;28;20041;-80
2023/12/29 00:02:32;;;;;;;8.77;3.13;;;9.90;99.90;;;;;;5034544;28;20048;-80
2023/12/29 00:04:57;;;;;;;10.43;3.00;;;10.00;99.90;;;;;;5033894;28;20042;-79
2023/12/29 00:07:23;;;;;;;14.10;3.13;;;10.00;99.90;;;;;;5032838;28;20049;-79
2023/12/29 00:09:49;;;;;;;10.00;3.17;;;10.00;99.90;;;;;;5032088;28;20056;-78
2023/12/29 00:12:14;;;;;;;7.77;3.07;;;10.10;99.90;;;;;;5035699;28;20046;-78
2023/12/29 00:14:40;;;;;;;7.53;3.03;;;10.20;99.90;;;;;;5030484;28;20196;-79
2023/12/29 00:17:06;;;;;;;12.90;4.07;;;10.20;99.90;;;;;;5015801;28;20089;-79
2023/12/29 00:19:32;;;;;;;12.30;3.40;;;10.20;99.90;;;;;;5034690;28;20076;-81
2023/12/29 00:21:59;;;;;;;12.17;2.70;;;10.20;99.90;;;;;;5035998;28;20046;-82
2023/12/29 00:24:26;;;;;;;9.27;3.30;;;10.20;99.90;;;;;;5025637;28;20045;-80
2023/12/29 00:26:51;;;;;;;9.50;2.83;;;10.20;99.90;;;;;;5030522;28;20038;-81
2023/12/29 00:29:17;;;;;;;10.97;3.07;;;10.20;99.90;;;;;;5031067;28;20048;-81
2023/12/29 00:31:43;;;;;;;10.60;2.90;;;10.30;99.90;;;;;;5014325;28;20119;-80
2023/12/29 00:34:08;;;;;;;9.80;2.90;;;10.20;99.90;;;;;;5037357;28;20072;-80
2023/12/29 00:36:35;;;;;;;11.17;3.20;;;10.30;99.90;;;;;;5029341;28;20516;-81
2023/12/29 00:39:00;;;;;;;10.67;3.20;;;10.30;99.90;;;;;;5035073;28;20045;-80
2023/12/29 00:41:26;;;;;;;10.00;2.80;;;10.20;99.90;;;;;;5018108;28;20093;-80
2023/12/29 00:43:51;;;;;;;9.63;2.80;;;10.20;99.90;;;;;;5033444;28;20085;-79
2023/12/29 00:46:17;;;;;;;13.73;3.00;;;10.30;99.90;;;;;;5032050;28;20041;-81
2023/12/29 00:48:43;;;;;;;10.27;2.77;;;10.30;99.90;;;;;;5034326;28;20042;-80
2023/12/29 00:51:09;;;;;;;6.83;2.87;;;10.30;99.90;;;;;;5015232;28;20421;-80
2023/12/29 00:53:35;;;;;;;11.07;3.37;;;10.30;99.90;;;;;;5035304;28;20037;-80
2023/12/29 00:56:01;;;;;;;9.20;2.83;;;10.20;99.90;;;;;;5034242;28;20122;-80
2023/12/29 00:58:26;;;;;;;11.53;3.10;;;10.10;99.90;;;;;;5031682;28;20081;-79
2023/12/29 01:00:52;;;;;;;10.40;2.93;;;10.10;99.90;;;;;;5034247;28;20069;-80
2023/12/29 01:03:18;;;;;;;10.67;3.40;;;10.10;99.90;;;;;;5034741;28;20058;-79
2023/12/29 01:05:44;;;;;;;8.63;2.90;;;10.10;99.90;;;;;;5032065;28;20084;-80
2023/12/29 01:08:09;;;;;;;9.67;3.60;;;10.10;99.90;;;;;;5018452;28;20042;-80
2023/12/29 01:10:35;;;;;;;13.60;3.37;;;10.10;99.90;;;;;;5035316;28;20329;-80
2023/12/29 01:13:01;;;;;;;10.37;3.30;;;10.10;99.90;;;;;;5034281;28;20554;-80
2023/12/29 01:15:28;;;;;;;12.13;3.97;;;10.00;99.90;;;;;;5032249;28;20034;-80
2023/12/29 01:17:54;;;;;;;11.70;3.63;;;10.00;99.90;;;;;;5034025;28;20076;-80
2023/12/29 01:20:19;;;;;;;10.67;3.50;;;9.90;99.90;;;;;;5018166;28;20041;-81
2023/12/29 01:22:45;;;;;;;11.20;3.10;;;10.00;99.90;;;;;;5031480;28;20603;-81
2023/12/29 01:25:11;;;;;;;12.97;3.80;;;10.00;99.90;;;;;;5031002;28;20084;-80
2023/12/29 01:27:36;;;;;;;11.17;3.73;;;9.90;99.90;;;;;;5029047;28;20145;-79
2023/12/29 01:30:02;;;;;;;9.70;3.90;;;9.90;99.90;;;;;;5038800;28;20041;-81
2023/12/29 01:32:28;;;;;;;12.83;4.30;;;10.00;99.90;;;;;;5025856;28;20115;-81
2023/12/29 01:34:54;;;;;;;12.13;3.70;;;10.00;99.90;;;;;;5032347;28;20132;-81
2023/12/29 01:37:19;;;;;;;10.73;3.73;;;9.90;99.90;;;;;;5035302;28;20030;-81
2023/12/29 01:39:45;;;;;;;10.43;3.40;;;9.90;99.90;;;;;;5031688;28;20049;-81
2023/12/29 01:42:11;;;;;;;16.77;4.07;;;9.90;99.90;;;;;;5035786;28;20045;-81
2023/12/29 01:44:37;;;;;;;10.73;3.87;;;9.90;99.90;;;;;;5032614;28;20037;-81
2023/12/29 01:47:05;;;;;;;17.10;4.20;;;9.90;99.90;;;;;;5030159;28;20037;-81
2023/12/29 01:49:32;;;;;;;13.50;4.80;;;9.90;99.90;;;;;;5034614;28;20116;-82
2023/12/29 01:52:00;;;;;;;16.33;4.10;;;9.90;99.90;;;;;;5035291;28;20040;-81
2023/12/29 01:54:29;;;;;;;15.37;4.57;;;9.90;99.90;;;;;;5011226;28;20064;-80
2023/12/29 01:56:58;;;;;;;11.33;4.23;;;9.90;99.90;;;;;;5028279;28;20456;-81
2023/12/29 01:59:25;;;;;;;15.47;4.60;;;9.90;99.90;;;;;;5028708;28;20084;-81
2023/12/29 02:01:52;;;;;;;10.73;3.93;;;9.90;99.90;;;;;;5029531;28;20053;-80
2023/12/29 02:04:18;;;;;;;11.40;3.90;;;9.90;99.90;;;;;;5016356;28;20049;-80
2023/12/29 02:06:44;;;;;;;13.63;4.00;;;9.90;99.90;;;;;;5031014;28;20572;-80
2023/12/29 02:09:12;;;;;;;18.33;4.50;;;9.80;99.90;;;;;;5025934;28;20045;-80
2023/12/29 02:11:38;;;;;;;13.37;3.83;;;9.80;99.90;;;;;;5033374;28;20045;-79
2023/12/29 02:14:04;;;;;;;15.43;4.13;;;9.70;99.90;;;;;;5035312;28;20315;-79
2023/12/29 02:16:36;;;;;;;13.97;4.20;;;9.70;99.90;;;;;;5016704;28;20049;-79
2023/12/29 02:19:19;;;;;;;15.82;4.68;;;9.70;99.90;;;;;;5013913;28;20103;-79
2023/12/29 02:21:45;;;;;;;14.60;4.53;;;9.70;99.90;;;;;;5006724;28;20064;-80
2023/12/29 02:24:10;;;;;;;10.03;4.17;;;9.70;99.90;;;;;;5030682;28;20038;-79
2023/12/29 02:26:37;;;;;;;13.93;4.37;;;9.70;99.90;;;;;;5032204;28;20109;-78
2023/12/29 02:29:08;;;;;;;13.23;4.13;;;9.70;99.90;;;;;;5031282;28;20040;-78
2023/12/29 02:31:36;;;;;;;14.63;4.50;;;9.80;99.90;;;;;;5029326;28;20076;-79
2023/12/29 02:34:06;;;;;;;14.53;5.03;;;9.80;99.90;;;;;;5028235;28;20092;-80
2023/12/29 02:36:32;;;;;;;17.80;4.50;;;9.80;99.90;;;;;;5016628;28;20049;-80
2023/12/29 02:38:59;;;;;;;16.00;4.10;;;9.80;99.90;;;;;;5013363;28;20512;-79
2023/12/29 02:41:24;;;;;;;14.33;4.60;;;9.90;99.90;;;;;;5029571;28;20424;-80
2023/12/29 02:43:50;;;;;;;8.73;4.33;;;9.80;99.90;;;;;;5029626;28;20058;-80
2023/12/29 02:46:16;;;;;;;18.03;4.93;;;9.80;99.90;;;;;;5029502;28;20042;-80
2023/12/29 02:48:42;;;;;;;14.80;5.23;;;9.90;99.90;;;;;;5035264;28;20037;-79
2023/12/29 02:51:08;;;;;;;14.87;4.67;;;9.90;99.90;;;;;;5017279;28;20049;-77
2023/12/29 02:53:34;;;;;;;11.93;3.00;;;9.80;99.90;;;;;;5032809;28;20079;-77
2023/12/29 02:56:00;;;;;;;12.47;3.20;;;9.80;99.90;;;;;;5027949;28;20084;-79
2023/12/29 02:58:25;;;;;;;15.43;4.43;;;9.60;99.90;;;;;;5023580;28;20049;-78
2023/12/29 03:00:51;;;;;;;11.10;3.80;;;9.60;99.90;;;;;;5002091;28;20456;-78
2023/12/29 03:03:16;;;;;;;17.37;4.83;;;9.60;99.90;;;;;;5030596;28;20045;-78
2023/12/29 03:05:42;;;;;;;10.90;3.90;;;9.50;99.90;;;;;;5031085;28;20048;-78
2023/12/29 03:08:08;;;;;;;9.03;2.63;;;9.50;99.90;;;;;;5036193;28;20041;-79
2023/12/29 03:10:33;;;;;;;5.90;2.20;;;9.50;99.90;;;;;;5013606;28;20034;-78
2023/12/29 03:12:59;;;;;;;8.37;2.40;;;9.50;99.90;;;;;;5013972;28;20199;-78
2023/12/29 03:15:25;;;;;;;7.40;2.80;;;9.40;99.90;;;;;;5024426;28;20053;-79
2023/12/29 03:17:50;;;;;;;11.33;2.83;;;9.40;99.90;;;;;;5029593;28;20137;-79
2023/12/29 03:20:16;;;;;;;10.10;3.17;;;9.30;99.90;;;;;;5011690;28;20393;-80
2023/12/29 03:22:42;;;;;;;12.93;3.77;;;9.30;99.90;;;;;;5030937;28;20154;-81
2023/12/29 03:25:07;;;;;;;12.73;4.30;;;9.30;99.90;;;;;;5018526;28;20045;-80
2023/12/29 03:27:33;;;;;;;14.50;4.50;;;9.30;99.90;;;;;;5035440;28;20128;-81
2023/12/29 03:29:59;;;;;;;14.10;3.70;;;9.40;99.90;;;;;;5036598;28;20049;-79
2023/12/29 03:32:24;;;;;;;12.77;4.90;;;9.40;99.90;;;;;;5038758;28;20072;-76
2023/12/29 03:34:50;;;;;;;16.80;4.37;;;9.50;99.90;;;;;;5034626;28;20045;-81
2023/12/29 03:37:16;;;;;;;13.77;5.10;;;9.60;99.90;;;;;;5033778;28;20041;-81
2023/12/29 03:39:41;;;;;;;17.60;4.90;;;9.60;99.90;;;;;;5029861;28;20046;-81
2023/12/29 03:42:07;;;;;;;15.57;4.30;;;9.60;99.90;;;;;;5013177;28;20202;-80
2023/12/29 03:44:33;;;;;;;15.17;4.47;;;9.60;99.90;;;;;;5035843;28;20052;-79
2023/12/29 03:46:59;;;;;;;15.07;4.07;;;9.70;99.90;;;;;;5036567;28;20052;-80
2023/12/29 03:49:25;;;;;;;10.67;4.00;;;9.70;99.90;;;;;;5037125;28;20045;-79
2023/12/29 03:51:50;;;;;;;14.70;4.50;;;9.70;99.90;;;;;;5037249;28;20104;-80
2023/12/29 03:54:18;;;;;;;14.67;4.43;;;9.70;99.90;;;;;;5034630;28;20048;-79
2023/12/29 03:56:43;;;;;;;10.83;4.00;;;9.70;99.90;;;;;;5015257;28;20646;-79
2023/12/29 03:59:09;;;;;;;13.17;4.40;;;9.70;99.90;;;;;;5030070;28;20135;-79
2023/12/29 04:01:35;;;;;;;14.13;4.20;;;9.70;99.90;;;;;;5037682;28;20058;-79
2023/12/29 04:04:00;;;;;;;16.60;4.80;;;9.70;99.90;;;;;;5037268;28;20156;-79
2023/12/29 04:06:26;;;;;;;13.43;4.47;;;9.70;99.90;;;;;;5036774;28;20046;-79
2023/12/29 04:08:52;;;;;;;16.07;4.17;;;9.70;99.90;;;;;;5028447;28;20046;-79
2023/12/29 04:11:17;;;;;;;15.60;4.37;;;9.70;99.90;;;;;;5036209;28;20045;-80
2023/12/29 04:13:43;;;;;;;17.63;4.50;;;9.70;99.90;;;;;;5014341;28;20651;-79
2023/12/29 04:16:09;;;;;;;12.53;3.80;;;9.70;99.90;;;;;;5029754;28;20046;-79
2023/12/29 04:18:35;;;;;;;10.30;3.37;;;9.70;99.90;;;;;;5035330;28;20042;-76
2023/12/29 04:21:00;;;;;;;15.80;3.70;;;9.70;99.90;;;;;;5016953;28;20041;-80
2023/12/29 04:23:26;;;;;;;15.03;4.10;;;9.70;99.90;;;;;;5033946;28;20033;-80
2023/12/29 04:25:52;;;;;;;16.63;4.43;;;9.60;99.90;;;;;;5037116;28;20045;-81
2023/12/29 04:28:17;;;;;;;15.97;4.10;;;9.70;99.90;;;;;;5031395;28;20061;-80
2023/12/29 04:30:43;;;;;;;19.97;4.00;;;9.60;99.90;;;;;;5030727;28;20061;-79
2023/12/29 04:33:09;;;;;;;17.13;4.60;;;9.50;99.90;;;;;;5032219;28;20101;-80
2023/12/29 04:35:34;;;;;;;14.87;4.40;;;9.50;99.90;;;;;;5031389;28;20042;-80
2023/12/29 04:38:00;;;;;;;16.63;5.20;;;9.50;99.90;;;;;;5016411;28;20061;-80
2023/12/29 04:40:26;;;;;;;18.30;5.07;;;9.50;99.90;;;;;;5025167;28;20104;-80
2023/12/29 04:42:51;;;;;;;17.83;5.33;;;9.50;99.90;;;;;;5032517;28;20060;-80
2023/12/29 04:45:17;;;;;;;15.37;4.87;;;9.50;99.90;;;;;;5036137;28;20376;-80
2023/12/29 04:47:43;;;;;;;20.63;4.80;;;9.50;99.90;;;;;;5036314;28;20042;-80
2023/12/29 04:50:08;;;;;;;17.00;4.83;;;9.50;99.90;;;;;;5032800;28;20049;-80
2023/12/29 04:52:34;;;;;;;21.43;5.20;;;9.50;99.90;;;;;;5026872;28;20048;-81
2023/12/29 04:55:00;;;;;;;16.37;3.93;;;9.50;99.90;;;;;;5019505;28;20099;-82
2023/12/29 04:57:25;;;;;;;14.90;3.97;;;9.50;99.90;;;;;;5032797;28;20092;-80
2023/12/29 04:59:51;;;;;;;15.93;4.87;;;9.50;99.90;;;;;;5021543;28;20555;-79
2023/12/29 05:02:19;;;;;;;17.67;4.37;;;9.50;99.90;;;;;;5031469;28;20510;-79
2023/12/29 05:04:45;;;;;;;17.53;4.77;;;9.40;99.90;;;;;;5032267;28;20041;-79
2023/12/29 05:07:11;;;;;;;17.57;4.40;;;9.40;99.90;;;;;;5033912;28;20057;-81
2023/12/29 05:09:37;;;;;;;15.70;4.10;;;9.40;99.90;;;;;;5028466;28;20064;-81
2023/12/29 05:12:03;;;;;;;14.93;4.93;;;9.40;99.90;;;;;;5029621;28;20105;-81
2023/12/29 05:14:29;;;;;;;21.23;5.00;;;9.40;99.90;;;;;;5035248;28;20564;-80
2023/12/29 05:16:54;;;;;;;14.43;4.37;;;9.50;99.90;;;;;;5032899;28;20077;-80
2023/12/29 05:19:21;;;;;;;23.90;4.80;;;9.50;99.90;;;;;;5031064;28;20986;-79
2023/12/29 05:21:49;;;;;;;15.80;4.30;;;9.50;99.90;;;;;;5027442;28;20063;-80
2023/12/29 05:24:15;;;;;;;17.87;4.07;;;9.50;99.90;;;;;;5033536;28;20042;-80
2023/12/29 05:26:41;;;;;;;20.73;4.20;;;9.50;99.90;;;;;;5034201;28;20184;-80
2023/12/29 05:29:06;;;;;;;19.00;4.40;;;9.50;99.90;;;;;;5032430;28;20037;-80
2023/12/29 05:31:32;;;;;;;16.60;3.83;;;9.50;99.90;;;;;;5033078;28;20040;-80
2023/12/29 05:33:57;;;;;;;17.70;4.30;;;9.60;99.90;;;;;;5030275;28;20052;-80
2023/12/29 05:36:23;;;;;;;22.00;4.13;;;9.60;99.90;;;;;;5033610;28;20125;-81
2023/12/29 05:38:49;;;;;;;21.63;4.60;;;9.60;99.90;;;;;;5015767;28;20041;-80
2023/12/29 05:41:15;;;;;;;21.60;4.47;;;9.60;99.90;;;;;;5033331;28;20037;-81
2023/12/29 05:43:40;;;;;;;17.33;4.40;;;9.60;99.90;;;;;;5032582;28;20054;-80
2023/12/29 05:46:13;;;;;;;19.33;4.40;;;9.60;99.90;;;;;;5031813;28;20052;-81
2023/12/29 05:48:39;;;;;;;19.97;4.47;;;9.70;99.90;;;;;;5035252;28;20052;-80
2023/12/29 05:51:13;;;;;;;15.17;4.00;;;9.70;99.90;;;;;;5031983;28;20041;-79
2023/12/29 05:53:42;;;;;;;21.87;4.77;;;9.70;99.90;;;;;;5032385;28;20029;-80
2023/12/29 05:56:09;;;;;;;17.87;4.07;;;9.70;99.90;;;;;;5027608;28;20052;-80
2023/12/29 05:58:35;;;;;;;15.43;3.73;;;9.70;99.90;;;;;;5028389;28;20083;-80
2023/12/29 06:01:01;;;;;;;15.93;4.03;;;9.60;99.90;;;;;;5015917;28;20049;-80
2023/12/29 06:03:27;;;;;;;17.13;4.13;;;9.60;99.90;;;;;;5029690;28;20110;-80
2023/12/29 06:05:53;;;;;;;21.07;4.13;;;9.50;99.90;;;;;;5032646;28;20537;-81
2023/12/29 06:08:19;;;;;;;14.20;3.60;;;9.40;99.90;;;;;;5036036;28;20061;-79
2023/12/29 06:10:45;;;;;;;15.77;4.33;;;9.40;99.90;;;;;;5026463;28;20029;-79
2023/12/29 06:13:11;;;;;;;16.03;4.13;;;9.40;99.90;;;;;;5027929;28;20041;-80
2023/12/29 06:15:36;;;;;;;18.93;4.37;;;9.40;99.90;;;;;;5033309;28;20037;-78
2023/12/29 06:18:03;;;;;;;18.90;4.13;;;9.50;99.90;;;;;;5033597;28;20579;-80
2023/12/29 06:20:29;;;;;;;20.03;4.30;;;9.40;99.90;;;;;;5032152;28;20038;-80
2023/12/29 06:22:55;;;;;;;22.70;4.40;;;9.40;99.90;;;;;;5027897;28;20053;-81
2023/12/29 06:25:22;;;;;;;18.70;4.93;;;9.40;99.90;;;;;;5033186;28;20045;-84
2023/12/29 06:27:48;;;;;;;20.77;4.40;;;9.40;99.90;;;;;;5008998;28;20054;-80
2023/12/29 06:30:14;;;;;;;17.60;4.97;;;9.40;99.90;;;;;;5013526;28;20042;-80
2023/12/29 06:32:40;;;;;;;23.83;4.80;;;9.40;99.90;;;;;;5013010;28;20597;-80
2023/12/29 06:35:06;;;;;;;19.17;5.23;;;9.50;99.90;;;;;;5029453;28;20055;-81
2023/12/29 06:37:32;;;;;;;18.20;4.97;;;9.50;99.90;;;;;;5010913;28;20079;-81
2023/12/29 06:39:58;;;;;;;23.50;4.93;;;9.60;99.90;;;;;;5028557;28;20053;-81
2023/12/29 06:42:24;;;;;;;18.20;4.70;;;9.60;99.90;;;;;;5024060;28;20115;-80
2023/12/29 06:44:50;;;;;;;21.87;5.27;;;9.70;99.90;;;;;;5030678;28;20634;-80
2023/12/29 06:47:16;;;;;;;26.63;5.80;;;9.60;99.90;;;;;;5030371;28;20052;-80
2023/12/29 06:49:41;;;;;;;19.27;5.37;;;9.60;99.90;;;;;;5030324;28;20080;-82
2023/12/29 06:52:07;;;;;;;27.20;6.10;;;9.60;99.90;;;;;;5025842;28;20136;-81
2023/12/29 06:54:36;;;;;;;22.63;5.47;;;9.50;99.90;;;;;;5036562;28;20089;-80
2023/12/29 06:57:02;;;;;;;19.33;5.50;;;9.60;99.90;;;;;;5033089;28;20056;-80
2023/12/29 06:59:27;;;;;;;22.97;4.93;;;9.50;99.90;;;;;;5033992;28;20128;-79
2023/12/29 07:01:53;;;;;;;21.57;5.77;;;9.60;99.90;;;;;;5033362;28;20045;-80
2023/12/29 07:04:19;;;;;;;24.43;5.77;;;9.50;99.90;;;;;;5034563;28;20468;-80
2023/12/29 07:06:44;;;;;;;21.33;4.70;;;9.50;99.90;;;;;;5007926;28;20481;-76
2023/12/29 07:09:10;;;;;;;21.17;5.57;;;9.50;99.90;;;;;;5034590;28;20056;-74
2023/12/29 07:11:36;;;;;;;19.07;4.60;;;9.40;99.90;;;;;;5018736;28;20068;-80
2023/12/29 07:14:02;;;;;;;22.43;5.40;;;9.40;99.90;;;;;;5030696;28;20507;-83
2023/12/29 07:16:29;;;;;;;23.27;6.37;;;9.40;99.90;;;;;;5035348;28;20045;-83
2023/12/29 07:18:54;;;;;;;24.20;5.10;;;9.40;99.90;;;;;;5035390;28;20408;-81
2023/12/29 07:21:20;;;;;;;26.57;6.07;;;9.40;99.90;;;;;;5027614;28;20104;-81
2023/12/29 07:23:46;;;;;;;27.77;5.63;;;9.40;99.90;;;;;;5038183;28;20048;-81
2023/12/29 07:26:11;;;;;;;29.77;5.33;;;9.40;99.90;;;;;;5016676;28;20173;-81
2023/12/29 07:28:37;;;;;;;21.70;6.23;;;9.40;99.90;;;;;;5038322;28;20101;-80
2023/12/29 07:31:03;;;;;;;25.57;5.87;;;9.40;99.90;;;;;;5036016;28;20041;-81
2023/12/29 07:33:30;;;;;;;30.63;5.60;;;9.40;99.90;;;;;;5028903;28;20040;-81
2023/12/29 07:35:56;;;;;;;30.23;5.40;;;9.40;99.90;;;;;;5031348;28;20070;-80
2023/12/29 07:38:21;;;;;;;21.10;5.40;;;9.40;99.90;;;;;;5043311;28;20041;-81
2023/12/29 07:40:47;;;;;;;26.90;5.90;;;9.40;99.90;;;;;;5037763;28;20046;-79
2023/12/29 07:43:13;;;;;;;28.17;5.77;;;9.40;99.90;;;;;;5031327;28;20045;-80
2023/12/29 07:45:39;;;;;;;18.70;5.10;;;9.40;99.90;;;;;;5039425;28;20041;-81
2023/12/29 07:48:05;;;;;;;27.00;5.47;;;9.30;99.90;;;;;;5021928;28;21373;-82
2023/12/29 07:50:31;;;;;;;26.23;6.40;;;9.30;99.90;;;;;;5039256;28;20069;-82
2023/12/29 07:52:57;;;;;;;30.90;6.60;;;9.20;99.90;;;;;;5024444;28;20642;-82
2023/12/29 07:55:23;;;;;;;35.17;6.57;;;9.20;99.90;;;;;;5049156;28;20053;-82
2023/12/29 07:57:48;;;;;;;25.77;5.63;;;9.20;99.90;;;;;;5039908;28;20339;-78
2023/12/29 08:00:15;;;;;;;20.07;5.63;;;9.10;99.90;;;;;;5043218;28;20053;-82
2023/12/29 08:02:41;;;;;;;28.33;5.87;;;9.20;99.90;;;;;;5049987;28;20052;-83
2023/12/29 08:05:10;;;;;;;29.93;6.17;;;9.20;99.90;;;;;;5035441;28;20128;-83
2023/12/29 08:07:37;;;;;;;29.00;6.67;;;9.20;99.90;;;;;;5034127;28;20050;-83
2023/12/29 08:10:05;;;;;;;29.37;6.30;;;9.20;99.90;;;;;;5031427;28;20049;-77
2023/12/29 08:12:33;;;;;;;21.40;5.33;;;9.20;99.90;;;;;;5038310;28;20060;-78
2023/12/29 08:14:59;;;;;;;26.43;5.33;;;9.20;99.90;;;;;;5028984;28;20060;-77
2023/12/29 08:17:25;;;;;;;25.20;4.77;;;9.20;99.90;;;;;;5016416;28;20057;-83
2023/12/29 08:19:52;;;;;;;23.70;5.70;;;9.30;99.90;;;;;;5015080;28;20057;-83
2023/12/29 08:22:19;;;;;;;26.10;5.77;;;9.30;99.90;;;;;;5017855;28;20046;-83
2023/12/29 08:24:45;;;;;;;26.30;5.83;;;9.30;99.90;;;;;;5016653;28;20317;-83
2023/12/29 08:27:12;;;;;;;23.63;5.57;;;9.30;99.90;;;;;;5000366;28;20080;-84
2023/12/29 08:29:38;;;;;;;21.30;6.17;;;9.30;99.90;;;;;;5022081;28;20129;-83
2023/12/29 08:32:04;;;;;;;25.30;5.63;;;9.30;99.90;;;;;;5012220;28;20081;-83
2023/12/29 08:34:30;;;;;;;24.33;6.57;;;9.30;99.90;;;;;;5020896;28;20075;-83
2023/12/29 08:36:56;;;;;;;19.73;5.43;;;9.40;99.90;;;;;;5014155;28;20132;-78
2023/12/29 08:39:22;;;;;;;23.80;5.83;;;9.30;99.90;;;;;;5026391;28;20109;-77
2023/12/29 08:41:49;;;;;;;26.27;5.80;;;9.30;99.90;;;;;;5019679;28;20074;-83
2023/12/29 08:44:15;;;;;;;20.73;5.20;;;9.30;99.90;;;;;;5014590;28;20104;-83
2023/12/29 08:46:41;;;;;;;29.23;6.03;;;9.30;99.90;;;;;;5023538;28;20063;-82
2023/12/29 08:49:07;;;;;;;25.27;5.57;;;9.40;99.90;;;;;;5007364;28;20070;-83
2023/12/29 08:51:33;;;;;;;23.30;5.87;;;9.40;99.90;;;;;;5029335;28;20109;-83
2023/12/29 08:53:59;;;;;;;21.87;5.97;;;9.40;99.90;;;;;;5014592;28;20046;-86
2023/12/29 08:56:25;;;;;;;27.17;6.27;;;9.40;99.90;;;;;;5014782;28;20050;-88
2023/12/29 08:58:51;;;;;;;25.70;5.20;;;9.40;99.90;;;;;;5018974;28;20054;-87
2023/12/29 09:01:16;;;;;;;23.30;5.10;;;9.40;99.90;;;;;;5023131;28;20543;-88
2023/12/29 09:03:42;;;;;;;18.33;4.73;;;9.40;99.90;;;;;;5022911;28;20045;-87
2023/12/29 09:06:08;;;;;;;19.43;4.77;;;9.40;99.90;;;;;;5023986;28;20049;-86
2023/12/29 09:08:35;;;;;;;19.30;5.33;;;9.40;99.90;;;;;;5015391;28;20048;-87
2023/12/29 09:11:01;;;;;;;19.10;4.43;;;9.40;99.90;;;;;;5010086;28;20430;-86
2023/12/29 09:13:27;;;;;;;14.40;4.37;;;9.50;99.90;;;;;;5014415;28;20042;-82
2023/12/29 09:15:57;;;;;;;14.30;3.63;;;9.50;99.90;;;;;;5028071;28;20416;-82
2023/12/29 09:18:23;;;;;;;15.77;3.67;;;9.50;99.90;;;;;;5034129;28;20056;-89
2023/12/29 09:20:48;;;;;;;14.27;3.63;;;9.60;99.90;;;;;;5040756;28;20053;-89
2023/12/29 09:23:14;;;;;;;13.17;4.03;;;9.60;99.90;;;;;;5039159;28;20240;-90
2023/12/29 09:25:41;;;;;;;18.50;3.90;;;9.60;99.90;;;;;;5046680;28;20045;-90
2023/12/29 09:28:06;;;;;;;17.17;3.97;;;9.60;99.90;;;;;;5026193;28;20037;-89
2023/12/29 09:30:32;;;;;;;14.27;3.93;;;9.60;99.90;;;;;;5039900;28;20049;-91
2023/12/29 09:32:58;;;;;;;13.33;3.83;;;9.60;99.90;;;;;;5041882;28;20037;-91
2023/12/29 09:35:24;;;;;;;18.33;4.43;;;9.60;99.90;;;;;;5033659;28;20053;-90
2023/12/29 09:37:50;;;;;;;15.53;4.40;;;9.60;99.90;;;;;;5042962;28;20132;-90
2023/12/29 09:40:16;;;;;;;18.93;4.77;;;9.60;99.90;;;;;;5044436;28;20073;-90
2023/12/29 09:42:44;;;;;;;16.07;4.47;;;9.60;99.90;;;;;;5036512;28;20115;-90
2023/12/29 09:45:12;;;;;;;18.80;4.60;;;9.60;99.90;;;;;;5037651;28;20048;-90
2023/12/29 09:47:43;;;;;;;17.70;4.73;;;9.70;99.90;;;;;;5035368;28;20040;-91
2023/12/29 09:50:13;;;;;;;14.80;4.60;;;9.70;99.90;;;;;;5013712;28;20084;-90
2023/12/29 09:52:40;;;;;;;15.53;3.87;;;9.70;99.90;;;;;;5038098;28;20037;-89
2023/12/29 09:55:12;;;;;;;15.17;3.90;;;9.80;99.90;;;;;;5042823;28;20045;-90
2023/12/29 09:57:38;;;;;;;16.03;3.90;;;9.80;99.90;;;;;;5034209;28;20095;-90
2023/12/29 10:00:05;;;;;;;18.50;4.80;;;9.80;99.90;;;;;;5018086;28;20074;-87
2023/12/29 10:02:31;;;;;;;14.27;3.97;;;9.80;99.90;;;;;;5036820;28;21321;-89
2023/12/29 10:05:01;;;;;;;16.30;4.03;;;9.80;99.90;;;;;;5036470;28;20042;-88
2023/12/29 10:07:29;;;;;;;14.23;3.90;;;9.80;99.90;;;;;;5018711;28;20505;-73
2023/12/29 10:09:56;;;;;;;12.00;3.80;;;9.80;99.90;;;;;;5031405;28;20075;-91
2023/12/29 10:12:24;;;;;;;15.37;4.00;;;9.90;99.90;;;;;;5037852;28;20765;-85
2023/12/29 10:15:03;;;;;;;13.47;4.13;;;9.90;99.90;;;;;;5038853;28;20517;-90
2023/12/29 10:17:43;;;;;;;18.33;4.20;;;9.90;99.90;;;;;;5045496;28;20064;-90
2023/12/29 10:20:31;;;;;;;14.57;3.60;;;9.90;99.90;;;;;;5030323;28;20046;-90
2023/12/29 10:22:59;;;;;;;18.03;4.23;;;9.90;99.90;;;;;;5032703;28;20063;-90
2023/12/29 10:25:25;;;;;;;17.53;4.33;;;9.90;99.90;;;;;;5039825;28;20127;-90
2023/12/29 10:27:51;;;;;;;17.53;4.37;;;9.90;99.90;;;;;;5032800;28;20444;-90
2023/12/29 10:30:18;;;;;;;13.93;3.57;;;9.80;99.90;;;;;;5042628;28;20072;-90
2023/12/29 10:32:50;;;;;;;13.10;4.47;;;9.80;99.90;;;;;;5044639;28;20569;-90
2023/12/29 10:35:16;;;;;;;11.23;3.73;;;9.80;99.90;;;;;;5019400;28;20064;-91
2023/12/29 10:37:41;;;;;;;13.47;3.60;;;9.80;99.90;;;;;;5024291;28;20056;-91
2023/12/29 10:40:08;;;;;;;13.57;3.80;;;9.80;99.90;;;;;;5039261;28;20052;-86
2023/12/29 10:42:34;;;;;;;17.23;3.93;;;9.90;99.90;;;;;;5029320;28;20041;-86
2023/12/29 10:45:12;;;;;;;15.80;3.70;;;9.90;99.90;;;;;;5041479;28;20091;-85
2023/12/29 10:47:43;;;;;;;14.43;4.20;;;9.90;99.90;;;;;;5044951;28;20045;-86
2023/12/29 10:50:09;;;;;;;15.07;3.97;;;9.90;99.90;;;;;;5042431;28;20041;-86
2023/12/29 10:52:37;;;;;;;13.03;3.37;;;9.90;99.90;;;;;;5035209;28;20611;-87
2023/12/29 10:55:07;;;;;;;11.40;3.90;;;9.90;99.90;;;;;;5042920;28;20045;-87
2023/12/29 10:57:33;;;;;;;15.23;3.50;;;9.90;99.90;;;;;;5045110;28;20049;-87
2023/12/29 11:00:02;;;;;;;15.20;3.50;;;9.90;99.90;;;;;;5044469;28;20177;-87
2023/12/29 11:02:32;;;;;;;11.10;3.20;;;10.00;99.90;;;;;;5048069;28;20089;-88
2023/12/29 11:05:06;;;;;;;11.33;3.20;;;10.00;99.90;;;;;;5029792;28;20041;-88
2023/12/29 11:07:35;;;;;;;15.43;3.43;;;10.00;99.90;;;;;;5041784;28;20053;-87
2023/12/29 11:10:03;;;;;;;12.47;3.60;;;10.00;99.90;;;;;;5046260;28;20105;-86
2023/12/29 11:12:34;;;;;;;11.30;3.10;;;10.00;99.90;;;;;;5051473;28;20060;-86
2023/12/29 11:15:02;;;;;;;11.68;2.95;;;10.00;99.90;;;;;;5013439;28;20645;-86
2023/12/29 11:17:30;;;;;;;14.63;3.30;;;10.00;99.90;;;;;;5050638;28;20050;-86
2023/12/29 11:19:59;;;;;;;10.97;2.97;;;10.10;99.90;;;;;;5025209;28;20583;-85
2023/12/29 11:22:29;;;;;;;11.37;3.13;;;10.00;99.90;;;;;;5044105;28;20493;-85
2023/12/29 11:24:55;;;;;;;13.37;3.17;;;10.00;99.90;;;;;;5016533;28;20045;-85
2023/12/29 11:27:22;;;;;;;14.17;3.60;;;10.10;99.90;;;;;;5049052;28;20037;-84
2023/12/29 11:29:48;;;;;;;15.93;3.30;;;10.10;99.90;;;;;;5037186;28;20079;-86
2023/12/29 11:32:25;;;;;;;9.83;2.80;;;10.10;99.90;;;;;;5060160;28;20057;-85
2023/12/29 11:35:03;;;;;;;12.97;3.60;;;10.20;99.90;;;;;;5036774;28;20429;-84
2023/12/29 11:37:43;;;;;;;13.70;3.07;;;10.20;99.90;;;;;;5029942;28;20067;-83
2023/12/29 11:40:19;;;;;;;15.80;3.43;;;10.20;99.90;;;;;;5050767;28;20096;-84
2023/12/29 11:42:49;;;;;;;13.40;3.10;;;10.30;99.90;;;;;;5046076;28;20493;-87
2023/12/29 11:45:34;;;;;;;14.43;3.50;;;10.20;99.90;;;;;;5025935;28;20053;-86
2023/12/29 11:48:02;;;;;;;17.07;3.37;;;10.20;99.90;;;;;;5036727;28;20056;-85
2023/12/29 11:50:30;;;;;;;11.63;3.13;;;10.20;99.90;;;;;;5039427;28;20100;-85
2023/12/29 11:52:56;;;;;;;13.03;3.40;;;10.20;99.90;;;;;;5044445;28;20501;-84
2023/12/29 11:55:27;;;;;;;17.30;3.33;;;10.20;99.90;;;;;;5023006;28;20106;-85
2023/12/29 11:57:53;;;;;;;13.63;3.58;;;10.20;99.90;;;;;;5043342;28;20119;-84
2023/12/29 12:00:19;;;;;;;13.13;2.90;;;10.20;99.90;;;;;;5050478;28;20416;-85
2023/12/29 12:02:44;;;;;;;12.60;3.97;;;10.20;99.90;;;;;;5044944;28;20385;-84
2023/12/29 12:05:10;;;;;;;15.27;3.87;;;10.20;99.90;;;;;;5019496;28;20068;-84
2023/12/29 12:07:36;;;;;;;7.87;2.63;;;10.10;99.90;;;;;;5041184;28;20051;-80
2023/12/29 12:10:23;;;;;;;11.07;2.80;;;10.10;99.90;;;;;;5037177;28;20041;-82
2023/12/29 12:12:51;;;;;;;16.93;3.40;;;10.00;99.90;;;;;;5016200;28;20045;-84
2023/12/29 12:15:29;;;;;;;13.40;2.77;;;10.00;99.90;;;;;;5032997;28;20042;-88
2023/12/29 12:18:00;;;;;;;13.03;2.97;;;9.90;99.90;;;;;;5035246;28;20099;-85
2023/12/29 12:20:28;;;;;;;15.10;3.20;;;9.90;99.90;;;;;;5038249;28;20034;-82
2023/12/29 12:22:58;;;;;;;8.30;2.50;;;9.90;99.90;;;;;;5007980;28;20729;-84
2023/12/29 12:25:29;;;;;;;12.60;3.00;;;9.90;99.90;;;;;;5023142;28;20045;-81
2023/12/29 12:27:59;;;;;;;8.97;2.40;;;9.90;99.90;;;;;;5039716;28;20041;-83
2023/12/29 12:30:25;;;;;;;9.13;2.27;;;9.80;99.90;;;;;;5024860;28;20038;-84
2023/12/29 12:33:03;;;;;;;21.20;4.07;;;9.80;99.90;;;;;;5050404;28;20068;-84
2023/12/29 12:35:30;;;;;;;11.43;2.73;;;9.80;99.90;;;;;;5055529;28;20100;-84
2023/12/29 12:38:12;;;;;;;15.40;3.23;;;9.80;99.90;;;;;;5053604;28;20721;-83
2023/12/29 12:40:38;;;;;;;15.00;3.53;;;9.80;99.90;;;;;;5038903;28;20042;-85
2023/12/29 12:43:04;;;;;;;12.57;3.17;;;9.80;99.90;;;;;;5040952;28;20473;-83